createdAt,value
2023-02-15T00:02:35.776Z,70.10
2023-02-15T00:07:32.221Z,79.20
2023-02-15T00:12:30.206Z,78.55
2023-02-15T00:17:30.271Z,140.27
2023-02-15T00:22:27.232Z,82.28
2023-02-15T00:27:23.808Z,73.05
2023-02-15T00:32:20.178Z,79.30
2023-02-15T00:37:16.948Z,87.32
2023-02-15T00:42:13.361Z,74.05
2023-02-15T00:47:09.745Z,108.63
2023-02-15T00:52:06.152Z,69.90
2023-02-15T00:57:02.664Z,97.60
2023-02-15T01:01:59.103Z,81.07
2023-02-15T01:06:55.480Z,71.28
2023-02-15T01:11:51.934Z,76.10
2023-02-15T01:16:48.362Z,130.25
2023-02-15T01:21:44.775Z,85.10
2023-02-15T01:26:41.210Z,101.68
2023-02-15T01:31:39.793Z,83.82
2023-02-15T01:36:36.701Z,73.07
2023-02-15T01:41:33.702Z,81.28
2023-02-15T01:46:48.261Z,68.47
2023-02-15T01:51:47.086Z,67.13
2023-02-15T01:56:43.645Z,180.85
2023-02-15T02:01:40.322Z,77.72
2023-02-15T02:06:38.868Z,107.90
2023-02-15T02:11:35.842Z,94.05
2023-02-15T02:16:56.071Z,87.07
2023-02-15T02:22:16.441Z,83.10
2023-02-15T02:27:38.453Z,76.70
2023-02-15T02:33:12.929Z,96.53
2023-02-15T02:38:16.026Z,71.20
2023-02-15T02:43:27.589Z,76.47
2023-02-15T02:48:28.775Z,71.72
2023-02-15T02:53:25.949Z,72.05
2023-02-15T02:58:32.298Z,80.13
2023-02-15T03:03:35.253Z,64.00
2023-02-15T03:08:38.721Z,73.93
2023-02-15T03:13:36.200Z,63.90
2023-02-15T03:18:39.739Z,74.38
2023-02-15T03:23:37.952Z,59.65
2023-02-15T03:28:42.722Z,71.85
2023-02-15T03:33:45.567Z,92.00
2023-02-15T03:38:51.057Z,72.13
2023-02-15T03:44:03.195Z,87.22
2023-02-15T03:49:05.740Z,79.03
2023-02-15T03:59:24.045Z,68.88
2023-02-15T04:04:25.482Z,66.30
2023-02-15T04:09:41.054Z,83.77
2023-02-15T04:14:56.002Z,70.38
2023-02-15T04:20:11.135Z,89.40
2023-02-15T04:25:10.389Z,76.60
2023-02-15T04:30:08.059Z,60.42
2023-02-15T04:35:06.262Z,83.95
2023-02-15T04:40:04.216Z,66.28
2023-02-15T04:45:00.603Z,95.50
2023-02-15T04:49:58.165Z,66.75
2023-02-15T04:54:54.904Z,71.18
2023-02-15T04:59:51.303Z,59.40
2023-02-15T05:04:47.826Z,108.05
2023-02-15T05:09:44.280Z,52.15
2023-02-15T05:14:40.741Z,60.00
2023-02-15T05:19:37.153Z,74.55
2023-02-15T05:24:52.081Z,59.28
2023-02-15T05:29:48.609Z,63.35
2023-02-15T05:34:45.029Z,63.28
2023-02-15T05:39:41.430Z,139.82
2023-02-15T05:44:37.886Z,64.38
2023-02-15T05:49:34.349Z,57.42
2023-02-15T05:54:30.827Z,51.63
2023-02-15T05:59:27.250Z,56.17
2023-02-15T06:04:23.688Z,57.92
2023-02-15T06:09:20.652Z,80.70
2023-02-15T06:14:17.118Z,50.60
2023-02-15T06:19:13.538Z,58.28
2023-02-15T06:24:10.312Z,59.20
2023-02-15T06:29:07.055Z,70.07
2023-02-15T06:34:03.593Z,50.40
2023-02-15T06:39:00.099Z,69.00
2023-02-15T06:43:56.532Z,58.53
2023-02-15T06:48:52.994Z,67.53
2023-02-15T06:53:49.473Z,59.35
2023-02-15T06:58:50.366Z,56.20
2023-02-15T07:03:46.869Z,58.65
2023-02-15T07:08:43.443Z,58.25
2023-02-15T07:13:39.870Z,60.25
2023-02-15T07:18:36.507Z,60.78
2023-02-15T07:23:32.971Z,53.78
2023-02-15T07:28:29.572Z,58.65
2023-02-15T07:33:27.862Z,64.80
2023-02-15T07:38:26.975Z,67.38
2023-02-15T07:43:23.387Z,53.95
2023-02-15T07:48:19.907Z,65.43
2023-02-15T07:53:16.310Z,146.40
2023-02-15T07:58:12.683Z,67.00
2023-02-15T08:03:15.042Z,55.70
2023-02-15T08:13:26.770Z,56.67
2023-02-15T08:18:23.193Z,87.57
2023-02-15T08:23:19.697Z,63.72
2023-02-15T08:28:16.118Z,50.70
2023-02-15T08:33:12.591Z,56.50
2023-02-15T08:38:08.979Z,58.65
2023-02-15T08:43:05.359Z,53.92
2023-02-15T08:48:01.798Z,57.67
2023-02-15T08:52:58.199Z,59.78
2023-02-15T08:57:56.417Z,55.85
2023-02-15T09:02:53.224Z,185.63
2023-02-15T09:07:49.706Z,59.30
2023-02-15T09:12:46.259Z,53.35
2023-02-15T09:17:42.695Z,64.90
2023-02-15T09:22:39.133Z,62.70
2023-02-15T09:27:35.852Z,60.00
2023-02-15T09:32:32.264Z,54.72
2023-02-15T09:37:28.634Z,52.47
2023-02-15T09:42:57.349Z,57.35
2023-02-15T09:48:38.772Z,57.40
2023-02-15T09:54:12.106Z,60.72
2023-02-15T09:59:41.306Z,52.90
2023-02-15T10:04:55.284Z,56.28
2023-02-15T10:10:09.039Z,59.88
2023-02-15T10:15:32.599Z,52.15
2023-02-15T10:26:12.175Z,53.50
2023-02-15T10:31:22.103Z,57.22
2023-02-15T10:36:33.637Z,60.10
2023-02-15T10:41:58.130Z,52.08
2023-02-15T10:47:19.700Z,56.28
2023-02-15T10:52:42.175Z,65.05
2023-02-15T10:57:56.366Z,53.25
2023-02-15T11:03:05.435Z,53.50
2023-02-15T11:08:07.206Z,57.05
2023-02-15T11:13:10.728Z,55.23
2023-02-15T11:18:22.142Z,61.05
2023-02-15T11:23:19.349Z,56.50
2023-02-15T11:28:30.012Z,52.85
2023-02-15T11:33:39.353Z,60.55
2023-02-15T11:38:37.495Z,49.75
2023-02-15T11:44:02.151Z,59.95
2023-02-15T11:48:59.329Z,50.55
2023-02-15T11:53:56.670Z,55.78
2023-02-15T11:59:00.485Z,54.45
2023-02-15T12:04:15.716Z,57.92
2023-02-15T12:09:37.021Z,50.05
2023-02-15T12:14:49.404Z,51.42
2023-02-15T12:19:50.072Z,46.67
2023-02-15T12:24:48.269Z,47.05
2023-02-15T12:29:59.419Z,43.55
2023-02-15T12:35:07.913Z,44.15
2023-02-15T12:40:30.345Z,43.13
2023-02-15T12:45:30.131Z,41.00
2023-02-15T12:50:34.683Z,44.40
2023-02-15T12:55:31.677Z,49.95
2023-02-15T13:00:30.257Z,41.20
2023-02-15T13:05:35.269Z,40.03
2023-02-15T13:10:40.338Z,41.58
2023-02-15T13:15:42.165Z,43.05
2023-02-15T13:20:41.527Z,36.75
2023-02-15T13:25:52.507Z,40.85
2023-02-15T13:30:49.998Z,34.67
2023-02-15T13:36:04.634Z,35.65
2023-02-15T13:41:06.237Z,41.13
2023-02-15T13:46:18.035Z,36.23
2023-02-15T13:51:39.505Z,32.92
2023-02-15T13:57:18.724Z,28.77
2023-02-15T14:02:39.507Z,32.20
2023-02-15T14:08:01.536Z,27.48
2023-02-15T14:13:32.470Z,28.58
2023-02-15T14:18:44.894Z,25.58
2023-02-15T14:24:02.873Z,29.02
2023-02-15T14:29:38.602Z,26.45
2023-02-15T14:34:53.018Z,28.33
2023-02-15T14:40:25.458Z,25.10
2023-02-15T14:45:35.146Z,24.95
2023-02-15T14:50:32.015Z,28.60
2023-02-15T14:55:37.895Z,27.42
2023-02-15T15:00:40.291Z,31.30
2023-02-15T15:05:49.972Z,28.38
2023-02-15T15:10:47.949Z,28.08
2023-02-15T15:15:48.171Z,30.55
2023-02-15T15:20:52.110Z,31.60
2023-02-15T15:26:18.906Z,31.20
2023-02-15T15:31:43.242Z,30.00
2023-02-15T15:37:20.233Z,34.35
2023-02-15T15:42:28.565Z,29.80
2023-02-15T15:47:33.668Z,29.88
2023-02-15T15:52:32.286Z,32.80
2023-02-15T15:57:34.734Z,31.58
2023-02-15T16:02:31.236Z,32.63
2023-02-15T16:07:27.718Z,33.42
2023-02-15T16:12:25.780Z,34.08
2023-02-15T16:17:26.208Z,34.17
2023-02-15T16:22:25.544Z,34.22
2023-02-15T16:27:30.486Z,33.67
2023-02-15T16:32:28.949Z,34.72
2023-02-15T16:37:28.651Z,31.23
2023-02-15T16:42:25.635Z,31.88
2023-02-15T16:47:34.399Z,29.70
2023-02-15T16:52:30.972Z,34.85
2023-02-15T16:57:39.119Z,34.75
2023-02-15T17:02:56.388Z,33.65
2023-02-15T17:08:18.379Z,35.53
2023-02-15T17:13:16.100Z,35.08
2023-02-15T17:18:12.455Z,32.15
2023-02-15T17:23:33.342Z,38.38
2023-02-15T17:28:32.649Z,34.47
2023-02-15T17:33:35.323Z,37.03
2023-02-15T17:38:32.693Z,38.00
2023-02-15T17:43:29.065Z,37.45
2023-02-15T17:48:33.016Z,38.38
2023-02-15T17:53:29.508Z,37.67
2023-02-15T17:58:25.962Z,40.20
2023-02-15T18:03:41.078Z,42.35
2023-02-15T18:08:55.981Z,39.50
2023-02-15T18:13:52.435Z,40.28
2023-02-15T18:18:49.362Z,40.45
2023-02-15T18:23:45.853Z,37.80
2023-02-15T18:28:42.290Z,39.08
2023-02-15T18:33:47.570Z,41.35
2023-02-15T18:38:44.258Z,44.75
2023-02-15T18:43:40.650Z,44.35
2023-02-15T18:48:37.148Z,38.92
2023-02-15T18:53:34.186Z,42.05
2023-02-15T18:58:30.587Z,39.42
2023-02-15T19:03:26.983Z,38.17
2023-02-15T19:08:24.616Z,39.03
2023-02-15T19:13:21.114Z,40.30
2023-02-15T19:18:19.069Z,38.45
2023-02-15T19:23:19.835Z,43.05
2023-02-15T19:28:25.030Z,44.38
2023-02-15T19:33:23.722Z,39.10
2023-02-15T19:38:30.803Z,37.60
2023-02-15T19:43:27.889Z,43.08
2023-02-15T19:48:24.751Z,40.17
2023-02-15T19:53:27.229Z,42.88
2023-02-15T19:58:23.959Z,43.25
2023-02-15T20:03:20.430Z,42.58
2023-02-15T20:08:20.890Z,41.10
2023-02-15T20:13:19.206Z,36.30
2023-02-15T20:18:15.636Z,40.03
2023-02-15T20:23:38.459Z,38.30
2023-02-15T20:28:34.890Z,39.03
2023-02-15T20:33:31.400Z,36.13
2023-02-15T20:38:30.905Z,38.28
2023-02-15T20:43:27.302Z,41.75
2023-02-15T20:48:23.753Z,43.08
2023-02-15T20:53:20.812Z,40.05
2023-02-15T20:58:24.662Z,37.33
2023-02-15T21:03:26.258Z,34.83
2023-02-15T21:08:23.768Z,35.70
2023-02-15T21:13:24.982Z,36.55
2023-02-15T21:18:30.086Z,36.78
2023-02-15T21:23:37.443Z,34.63
2023-02-15T21:28:33.883Z,34.92
2023-02-15T21:33:30.260Z,35.90
2023-02-15T21:38:30.675Z,33.83
2023-02-15T21:43:45.757Z,41.58
2023-02-15T21:48:42.142Z,35.60
2023-02-15T21:53:46.756Z,34.58
2023-02-15T21:58:43.183Z,36.55
2023-02-15T22:03:39.896Z,34.63
2023-02-15T22:08:36.355Z,34.13
2023-02-15T22:13:33.996Z,34.45
2023-02-15T22:18:34.089Z,35.72
2023-02-15T22:23:30.677Z,34.15
2023-02-15T22:28:33.503Z,36.05
2023-02-15T22:33:32.713Z,38.13
2023-02-15T22:38:29.294Z,37.55
2023-02-15T22:43:37.194Z,40.67
2023-02-15T22:48:34.142Z,35.03
2023-02-15T22:53:30.515Z,32.78
2023-02-15T22:58:28.520Z,36.60
2023-02-15T23:03:26.676Z,36.40
2023-02-15T23:08:23.105Z,38.08
2023-02-15T23:13:25.569Z,38.40
2023-02-15T23:18:31.287Z,43.38
2023-02-15T23:23:36.220Z,34.50
2023-02-15T23:28:37.831Z,37.15
2023-02-15T23:33:34.902Z,35.93
2023-02-15T23:38:32.773Z,36.85
2023-02-15T23:43:29.260Z,34.03
2023-02-15T23:48:37.293Z,36.50
2023-02-15T23:53:33.902Z,35.65
2023-02-15T23:58:40.279Z,33.33
